Rosholt, Wisconsin
Current Conditions -  °F | °C
As of 2:35 AM on Saturday 22 Nov 2014 (Local Time) from KSTE Reporting Station
Overcast Overcast  
Wind Chill: 21°   Ceiling: 1700
Heat Index: 30°   Visibility: 10mi
Dew Point: 22°   Wind: 12mph
Humidity: 73%   Direction: 210°SSW
Pressure: 29.91"   Gusts: 18mph
Location:  44.63°N, 89.31°W
Report Text: KSTE 220835Z AUTO 21010G16KT 10SM OVC017 M01/M05 A2991 RMK AO2 T10101053
Loading
Personal Weather Stations






























Interactive Weather Map New forecast layout! Learn more

10-Day Weather Forecast

Advertisements
Track Severe Weather on mobile